sensor_id;sensor_type;location;lat;lon;timestamp;P1;durP1;ratioP1;P2;durP2;ratioP2
62582;SDS011;48641;51.676;5.808;2024-01-30T00:00:08;9.32;;;4.35;;
62582;SDS011;48641;51.676;5.808;2024-01-30T00:02:34;9.00;;;4.25;;
62582;SDS011;48641;51.676;5.808;2024-01-30T00:05:00;7.10;;;3.60;;
62582;SDS011;48641;51.676;5.808;2024-01-30T00:07:25;7.57;;;3.63;;
62582;SDS011;48641;51.676;5.808;2024-01-30T00:09:51;7.25;;;3.40;;
62582;SDS011;48641;51.676;5.808;2024-01-30T00:12:17;7.70;;;3.88;;
62582;SDS011;48641;51.676;5.808;2024-01-30T00:14:42;7.88;;;3.60;;
62582;SDS011;48641;51.676;5.808;2024-01-30T00:17:10;7.50;;;3.80;;
62582;SDS011;48641;51.676;5.808;2024-01-30T00:19:36;8.35;;;3.55;;
62582;SDS011;48641;51.676;5.808;2024-01-30T00:22:01;7.82;;;3.85;;
62582;SDS011;48641;51.676;5.808;2024-01-30T00:24:27;7.40;;;3.67;;
62582;SDS011;48641;51.676;5.808;2024-01-30T00:26:53;8.32;;;3.95;;
62582;SDS011;48641;51.676;5.808;2024-01-30T00:29:18;6.90;;;3.65;;
62582;SDS011;48641;51.676;5.808;2024-01-30T00:31:47;9.25;;;3.78;;
62582;SDS011;48641;51.676;5.808;2024-01-30T00:34:13;8.20;;;3.58;;
62582;SDS011;48641;51.676;5.808;2024-01-30T00:36:39;6.95;;;3.22;;
62582;SDS011;48641;51.676;5.808;2024-01-30T00:39:04;8.60;;;4.05;;
62582;SDS011;48641;51.676;5.808;2024-01-30T00:41:32;8.23;;;3.72;;
62582;SDS011;48641;51.676;5.808;2024-01-30T00:43:57;7.40;;;3.83;;
62582;SDS011;48641;51.676;5.808;2024-01-30T00:46:23;6.88;;;3.72;;
62582;SDS011;48641;51.676;5.808;2024-01-30T00:48:48;7.15;;;3.40;;
62582;SDS011;48641;51.676;5.808;2024-01-30T00:51:14;7.50;;;3.83;;
62582;SDS011;48641;51.676;5.808;2024-01-30T00:53:40;8.80;;;3.72;;
62582;SDS011;48641;51.676;5.808;2024-01-30T00:56:06;8.30;;;3.80;;
62582;SDS011;48641;51.676;5.808;2024-01-30T00:58:32;8.88;;;4.43;;
62582;SDS011;48641;51.676;5.808;2024-01-30T01:00:58;9.00;;;3.70;;
62582;SDS011;48641;51.676;5.808;2024-01-30T01:03:24;9.43;;;4.95;;
62582;SDS011;48641;51.676;5.808;2024-01-30T01:05:50;7.90;;;4.30;;
62582;SDS011;48641;51.676;5.808;2024-01-30T01:08:15;9.50;;;4.68;;
62582;SDS011;48641;51.676;5.808;2024-01-30T01:10:41;7.25;;;3.50;;
62582;SDS011;48641;51.676;5.808;2024-01-30T01:13:07;7.38;;;4.13;;
62582;SDS011;48641;51.676;5.808;2024-01-30T01:15:32;8.10;;;4.68;;
62582;SDS011;48641;51.676;5.808;2024-01-30T01:17:58;8.35;;;4.22;;
62582;SDS011;48641;51.676;5.808;2024-01-30T01:20:23;8.05;;;3.80;;
62582;SDS011;48641;51.676;5.808;2024-01-30T01:22:49;7.75;;;4.10;;
62582;SDS011;48641;51.676;5.808;2024-01-30T01:25:14;7.72;;;4.13;;
62582;SDS011;48641;51.676;5.808;2024-01-30T01:27:40;8.77;;;4.22;;
62582;SDS011;48641;51.676;5.808;2024-01-30T01:30:08;7.32;;;3.65;;
62582;SDS011;48641;51.676;5.808;2024-01-30T01:32:35;7.72;;;3.75;;
62582;SDS011;48641;51.676;5.808;2024-01-30T01:35:01;6.88;;;3.28;;
62582;SDS011;48641;51.676;5.808;2024-01-30T01:37:27;8.55;;;4.85;;
62582;SDS011;48641;51.676;5.808;2024-01-30T01:39:53;7.22;;;3.88;;
62582;SDS011;48641;51.676;5.808;2024-01-30T01:42:18;8.50;;;4.05;;
62582;SDS011;48641;51.676;5.808;2024-01-30T01:44:44;9.52;;;4.38;;
62582;SDS011;48641;51.676;5.808;2024-01-30T01:47:09;6.82;;;3.40;;
62582;SDS011;48641;51.676;5.808;2024-01-30T01:49:36;7.47;;;3.83;;
62582;SDS011;48641;51.676;5.808;2024-01-30T01:52:02;7.95;;;3.83;;
62582;SDS011;48641;51.676;5.808;2024-01-30T01:54:28;8.50;;;4.78;;
62582;SDS011;48641;51.676;5.808;2024-01-30T01:56:54;8.02;;;3.63;;
62582;SDS011;48641;51.676;5.808;2024-01-30T01:59:20;8.88;;;4.20;;
62582;SDS011;48641;51.676;5.808;2024-01-30T02:01:47;8.93;;;4.78;;
62582;SDS011;48641;51.676;5.808;2024-01-30T02:06:42;7.78;;;3.83;;
62582;SDS011;48641;51.676;5.808;2024-01-30T02:09:08;8.70;;;4.00;;
62582;SDS011;48641;51.676;5.808;2024-01-30T02:11:34;8.25;;;3.38;;
62582;SDS011;48641;51.676;5.808;2024-01-30T02:14:03;9.43;;;5.13;;
62582;SDS011;48641;51.676;5.808;2024-01-30T02:16:29;7.55;;;3.65;;
62582;SDS011;48641;51.676;5.808;2024-01-30T02:18:56;7.82;;;3.80;;
62582;SDS011;48641;51.676;5.808;2024-01-30T02:21:21;10.25;;;5.93;;
62582;SDS011;48641;51.676;5.808;2024-01-30T02:23:47;7.45;;;3.90;;
62582;SDS011;48641;51.676;5.808;2024-01-30T02:26:14;8.52;;;3.72;;
62582;SDS011;48641;51.676;5.808;2024-01-30T02:28:39;8.68;;;3.85;;
62582;SDS011;48641;51.676;5.808;2024-01-30T02:31:05;7.80;;;4.13;;
62582;SDS011;48641;51.676;5.808;2024-01-30T02:33:31;7.53;;;3.97;;
62582;SDS011;48641;51.676;5.808;2024-01-30T02:35:57;7.72;;;3.85;;
62582;SDS011;48641;51.676;5.808;2024-01-30T02:38:23;7.53;;;4.05;;
62582;SDS011;48641;51.676;5.808;2024-01-30T02:40:49;10.70;;;4.10;;
62582;SDS011;48641;51.676;5.808;2024-01-30T02:43:15;7.93;;;3.90;;
62582;SDS011;48641;51.676;5.808;2024-01-30T02:45:41;7.20;;;3.78;;
62582;SDS011;48641;51.676;5.808;2024-01-30T02:48:07;9.80;;;4.63;;
62582;SDS011;48641;51.676;5.808;2024-01-30T02:50:33;7.70;;;3.70;;
62582;SDS011;48641;51.676;5.808;2024-01-30T02:52:58;8.25;;;3.50;;
62582;SDS011;48641;51.676;5.808;2024-01-30T02:55:24;7.97;;;3.97;;
62582;SDS011;48641;51.676;5.808;2024-01-30T02:57:50;9.00;;;4.93;;
62582;SDS011;48641;51.676;5.808;2024-01-30T03:00:15;6.82;;;3.35;;
62582;SDS011;48641;51.676;5.808;2024-01-30T03:02:41;8.02;;;3.55;;
62582;SDS011;48641;51.676;5.808;2024-01-30T03:05:08;7.50;;;3.63;;
62582;SDS011;48641;51.676;5.808;2024-01-30T03:07:34;9.30;;;5.13;;
62582;SDS011;48641;51.676;5.808;2024-01-30T03:09:59;7.47;;;3.80;;
62582;SDS011;48641;51.676;5.808;2024-01-30T03:12:25;7.78;;;3.80;;
62582;SDS011;48641;51.676;5.808;2024-01-30T03:14:50;7.70;;;4.35;;
62582;SDS011;48641;51.676;5.808;2024-01-30T03:17:16;8.38;;;3.95;;
62582;SDS011;48641;51.676;5.808;2024-01-30T03:19:42;7.35;;;3.70;;
62582;SDS011;48641;51.676;5.808;2024-01-30T03:22:07;7.80;;;4.35;;
62582;SDS011;48641;51.676;5.808;2024-01-30T03:24:33;7.88;;;3.70;;
62582;SDS011;48641;51.676;5.808;2024-01-30T03:26:58;10.07;;;4.20;;
62582;SDS011;48641;51.676;5.808;2024-01-30T03:29:24;8.65;;;4.60;;
62582;SDS011;48641;51.676;5.808;2024-01-30T03:31:50;9.00;;;4.28;;
62582;SDS011;48641;51.676;5.808;2024-01-30T03:34:15;7.47;;;3.88;;
62582;SDS011;48641;51.676;5.808;2024-01-30T03:36:41;7.70;;;3.70;;
62582;SDS011;48641;51.676;5.808;2024-01-30T03:39:07;7.82;;;3.88;;
62582;SDS011;48641;51.676;5.808;2024-01-30T03:41:32;7.45;;;3.28;;
62582;SDS011;48641;51.676;5.808;2024-01-30T03:43:58;9.23;;;4.80;;
62582;SDS011;48641;51.676;5.808;2024-01-30T03:46:24;7.78;;;3.78;;
62582;SDS011;48641;51.676;5.808;2024-01-30T03:48:49;8.35;;;4.63;;
62582;SDS011;48641;51.676;5.808;2024-01-30T03:51:15;7.13;;;3.50;;
62582;SDS011;48641;51.676;5.808;2024-01-30T03:53:41;8.82;;;4.60;;
62582;SDS011;48641;51.676;5.808;2024-01-30T03:56:08;8.27;;;3.58;;
62582;SDS011;48641;51.676;5.808;2024-01-30T03:58:34;7.10;;;3.80;;
62582;SDS011;48641;51.676;5.808;2024-01-30T04:01:00;9.60;;;5.32;;
62582;SDS011;48641;51.676;5.808;2024-01-30T04:03:25;7.28;;;4.00;;
62582;SDS011;48641;51.676;5.808;2024-01-30T04:05:51;7.05;;;3.60;;
62582;SDS011;48641;51.676;5.808;2024-01-30T04:08:18;7.72;;;3.75;;
62582;SDS011;48641;51.676;5.808;2024-01-30T04:10:43;6.85;;;3.55;;
62582;SDS011;48641;51.676;5.808;2024-01-30T04:13:09;7.57;;;3.40;;
62582;SDS011;48641;51.676;5.808;2024-01-30T04:15:35;6.85;;;3.63;;
62582;SDS011;48641;51.676;5.808;2024-01-30T04:18:01;7.00;;;3.15;;
62582;SDS011;48641;51.676;5.808;2024-01-30T04:20:26;7.57;;;3.60;;
62582;SDS011;48641;51.676;5.808;2024-01-30T04:22:52;8.82;;;4.00;;
62582;SDS011;48641;51.676;5.808;2024-01-30T04:25:18;7.53;;;3.85;;
62582;SDS011;48641;51.676;5.808;2024-01-30T04:27:43;7.72;;;3.70;;
62582;SDS011;48641;51.676;5.808;2024-01-30T04:30:09;6.93;;;3.70;;
62582;SDS011;48641;51.676;5.808;2024-01-30T04:32:35;7.45;;;3.97;;
62582;SDS011;48641;51.676;5.808;2024-01-30T04:35:01;6.70;;;3.67;;
62582;SDS011;48641;51.676;5.808;2024-01-30T04:37:27;6.70;;;2.95;;
62582;SDS011;48641;51.676;5.808;2024-01-30T04:39:53;6.93;;;3.30;;
62582;SDS011;48641;51.676;5.808;2024-01-30T04:42:18;6.18;;;3.28;;
62582;SDS011;48641;51.676;5.808;2024-01-30T04:44:44;6.85;;;3.58;;
62582;SDS011;48641;51.676;5.808;2024-01-30T04:47:10;7.88;;;3.22;;
62582;SDS011;48641;51.676;5.808;2024-01-30T04:49:37;7.05;;;3.35;;
62582;SDS011;48641;51.676;5.808;2024-01-30T04:52:04;6.95;;;3.33;;
62582;SDS011;48641;51.676;5.808;2024-01-30T04:54:31;9.32;;;3.78;;
62582;SDS011;48641;51.676;5.808;2024-01-30T04:56:56;6.50;;;3.38;;
62582;SDS011;48641;51.676;5.808;2024-01-30T04:59:22;7.32;;;3.80;;
62582;SDS011;48641;51.676;5.808;2024-01-30T05:01:47;6.55;;;3.20;;
62582;SDS011;48641;51.676;5.808;2024-01-30T05:04:13;7.22;;;3.70;;
62582;SDS011;48641;51.676;5.808;2024-01-30T05:06:39;7.05;;;3.47;;
62582;SDS011;48641;51.676;5.808;2024-01-30T05:09:04;6.85;;;3.33;;
62582;SDS011;48641;51.676;5.808;2024-01-30T05:11:30;7.53;;;3.40;;
62582;SDS011;48641;51.676;5.808;2024-01-30T05:13:56;7.38;;;3.17;;
62582;SDS011;48641;51.676;5.808;2024-01-30T05:16:21;7.75;;;3.45;;
62582;SDS011;48641;51.676;5.808;2024-01-30T05:18:47;6.93;;;3.45;;
62582;SDS011;48641;51.676;5.808;2024-01-30T05:21:13;6.88;;;3.67;;
62582;SDS011;48641;51.676;5.808;2024-01-30T05:23:39;6.97;;;3.40;;
62582;SDS011;48641;51.676;5.808;2024-01-30T05:26:06;7.28;;;3.58;;
62582;SDS011;48641;51.676;5.808;2024-01-30T05:28:32;6.88;;;3.58;;
62582;SDS011;48641;51.676;5.808;2024-01-30T05:30:58;7.53;;;3.78;;
62582;SDS011;48641;51.676;5.808;2024-01-30T05:33:23;7.22;;;3.33;;
62582;SDS011;48641;51.676;5.808;2024-01-30T05:35:49;6.93;;;3.78;;
62582;SDS011;48641;51.676;5.808;2024-01-30T05:38:15;7.25;;;3.30;;
62582;SDS011;48641;51.676;5.808;2024-01-30T05:40:41;6.25;;;3.08;;
62582;SDS011;48641;51.676;5.808;2024-01-30T05:43:07;7.35;;;3.25;;
62582;SDS011;48641;51.676;5.808;2024-01-30T05:45:33;6.70;;;3.28;;
62582;SDS011;48641;51.676;5.808;2024-01-30T05:48:00;6.88;;;3.60;;
62582;SDS011;48641;51.676;5.808;2024-01-30T05:50:26;8.40;;;3.60;;
62582;SDS011;48641;51.676;5.808;2024-01-30T05:52:52;7.00;;;3.50;;
62582;SDS011;48641;51.676;5.808;2024-01-30T05:55:17;5.65;;;3.05;;
62582;SDS011;48641;51.676;5.808;2024-01-30T05:57:43;8.23;;;3.30;;
62582;SDS011;48641;51.676;5.808;2024-01-30T06:00:09;7.07;;;3.35;;
62582;SDS011;48641;51.676;5.808;2024-01-30T06:02:35;7.57;;;3.70;;
62582;SDS011;48641;51.676;5.808;2024-01-30T06:05:00;7.82;;;3.13;;
62582;SDS011;48641;51.676;5.808;2024-01-30T06:07:26;6.53;;;3.08;;
62582;SDS011;48641;51.676;5.808;2024-01-30T06:09:51;7.85;;;3.35;;
62582;SDS011;48641;51.676;5.808;2024-01-30T06:12:17;7.45;;;3.30;;
62582;SDS011;48641;51.676;5.808;2024-01-30T06:14:43;7.97;;;3.40;;
62582;SDS011;48641;51.676;5.808;2024-01-30T06:17:08;7.90;;;3.35;;
62582;SDS011;48641;51.676;5.808;2024-01-30T06:19:34;6.47;;;2.95;;
62582;SDS011;48641;51.676;5.808;2024-01-30T06:22:00;6.32;;;3.28;;
62582;SDS011;48641;51.676;5.808;2024-01-30T06:24:26;6.70;;;3.28;;
62582;SDS011;48641;51.676;5.808;2024-01-30T06:26:52;7.43;;;3.50;;
62582;SDS011;48641;51.676;5.808;2024-01-30T06:29:18;7.28;;;3.38;;
62582;SDS011;48641;51.676;5.808;2024-01-30T06:31:43;7.05;;;3.20;;
62582;SDS011;48641;51.676;5.808;2024-01-30T06:34:09;7.43;;;3.20;;
62582;SDS011;48641;51.676;5.808;2024-01-30T06:36:36;7.70;;;3.20;;
62582;SDS011;48641;51.676;5.808;2024-01-30T06:39:02;5.45;;;2.67;;
62582;SDS011;48641;51.676;5.808;2024-01-30T06:41:28;6.93;;;3.10;;
62582;SDS011;48641;51.676;5.808;2024-01-30T06:43:54;6.78;;;2.70;;
62582;SDS011;48641;51.676;5.808;2024-01-30T06:46:20;6.13;;;2.70;;
62582;SDS011;48641;51.676;5.808;2024-01-30T06:48:46;6.82;;;2.92;;
62582;SDS011;48641;51.676;5.808;2024-01-30T06:51:11;6.53;;;3.15;;
62582;SDS011;48641;51.676;5.808;2024-01-30T06:53:37;6.05;;;2.70;;
62582;SDS011;48641;51.676;5.808;2024-01-30T06:56:03;5.25;;;2.60;;
62582;SDS011;48641;51.676;5.808;2024-01-30T06:58:28;6.45;;;3.15;;
62582;SDS011;48641;51.676;5.808;2024-01-30T07:00:54;6.63;;;3.25;;
62582;SDS011;48641;51.676;5.808;2024-01-30T07:03:20;6.57;;;2.83;;
62582;SDS011;48641;51.676;5.808;2024-01-30T07:05:46;7.20;;;3.10;;
62582;SDS011;48641;51.676;5.808;2024-01-30T07:08:12;6.93;;;2.90;;
62582;SDS011;48641;51.676;5.808;2024-01-30T07:10:38;7.05;;;3.30;;
62582;SDS011;48641;51.676;5.808;2024-01-30T07:13:03;9.00;;;3.17;;
62582;SDS011;48641;51.676;5.808;2024-01-30T07:15:30;7.15;;;2.80;;
62582;SDS011;48641;51.676;5.808;2024-01-30T07:17:56;5.57;;;2.80;;
62582;SDS011;48641;51.676;5.808;2024-01-30T07:20:22;6.50;;;2.97;;
62582;SDS011;48641;51.676;5.808;2024-01-30T07:22:47;5.75;;;2.97;;
62582;SDS011;48641;51.676;5.808;2024-01-30T07:25:13;6.38;;;3.13;;
62582;SDS011;48641;51.676;5.808;2024-01-30T07:27:39;6.97;;;2.97;;
62582;SDS011;48641;51.676;5.808;2024-01-30T07:30:05;7.07;;;2.78;;
62582;SDS011;48641;51.676;5.808;2024-01-30T07:32:31;7.10;;;2.72;;
62582;SDS011;48641;51.676;5.808;2024-01-30T07:34:57;6.32;;;2.78;;
62582;SDS011;48641;51.676;5.808;2024-01-30T07:37:22;6.15;;;2.92;;
62582;SDS011;48641;51.676;5.808;2024-01-30T07:39:48;6.47;;;2.70;;
62582;SDS011;48641;51.676;5.808;2024-01-30T07:42:13;7.28;;;3.20;;
62582;SDS011;48641;51.676;5.808;2024-01-30T07:44:39;6.18;;;2.85;;
62582;SDS011;48641;51.676;5.808;2024-01-30T07:47:05;7.43;;;3.00;;
62582;SDS011;48641;51.676;5.808;2024-01-30T07:49:30;6.53;;;3.05;;
62582;SDS011;48641;51.676;5.808;2024-01-30T07:51:59;6.45;;;2.65;;
62582;SDS011;48641;51.676;5.808;2024-01-30T07:54:25;6.75;;;3.13;;
62582;SDS011;48641;51.676;5.808;2024-01-30T07:56:58;6.97;;;3.13;;
62582;SDS011;48641;51.676;5.808;2024-01-30T07:59:25;7.70;;;3.25;;
62582;SDS011;48641;51.676;5.808;2024-01-30T08:02:03;10.15;;;3.25;;
62582;SDS011;48641;51.676;5.808;2024-01-30T08:04:29;11.05;;;3.63;;
62582;SDS011;48641;51.676;5.808;2024-01-30T08:06:55;7.20;;;3.25;;
62582;SDS011;48641;51.676;5.808;2024-01-30T08:09:20;10.00;;;3.78;;
62582;SDS011;48641;51.676;5.808;2024-01-30T08:11:46;7.82;;;3.22;;
62582;SDS011;48641;51.676;5.808;2024-01-30T08:14:11;8.82;;;3.50;;
62582;SDS011;48641;51.676;5.808;2024-01-30T08:16:38;7.43;;;3.50;;
62582;SDS011;48641;51.676;5.808;2024-01-30T08:19:04;9.07;;;3.55;;
62582;SDS011;48641;51.676;5.808;2024-01-30T08:21:29;8.15;;;3.40;;
62582;SDS011;48641;51.676;5.808;2024-01-30T08:23:55;6.63;;;3.60;;
62582;SDS011;48641;51.676;5.808;2024-01-30T08:26:21;7.97;;;3.08;;
62582;SDS011;48641;51.676;5.808;2024-01-30T08:28:46;8.80;;;3.90;;
62582;SDS011;48641;51.676;5.808;2024-01-30T08:31:12;7.97;;;3.50;;
62582;SDS011;48641;51.676;5.808;2024-01-30T08:33:37;6.45;;;3.17;;
62582;SDS011;48641;51.676;5.808;2024-01-30T08:36:03;7.53;;;3.53;;
62582;SDS011;48641;51.676;5.808;2024-01-30T08:38:29;9.55;;;3.28;;
62582;SDS011;48641;51.676;5.808;2024-01-30T08:40:55;7.65;;;3.33;;
62582;SDS011;48641;51.676;5.808;2024-01-30T08:43:21;7.38;;;3.20;;
62582;SDS011;48641;51.676;5.808;2024-01-30T08:45:47;7.78;;;3.15;;
62582;SDS011;48641;51.676;5.808;2024-01-30T08:48:13;7.68;;;3.20;;
62582;SDS011;48641;51.676;5.808;2024-01-30T08:50:39;7.75;;;3.78;;
62582;SDS011;48641;51.676;5.808;2024-01-30T08:53:04;7.32;;;3.30;;
62582;SDS011;48641;51.676;5.808;2024-01-30T08:55:30;6.60;;;3.10;;
62582;SDS011;48641;51.676;5.808;2024-01-30T08:57:56;7.13;;;3.45;;
62582;SDS011;48641;51.676;5.808;2024-01-30T09:00:21;7.75;;;3.40;;
62582;SDS011;48641;51.676;5.808;2024-01-30T09:02:47;6.65;;;3.28;;
62582;SDS011;48641;51.676;5.808;2024-01-30T09:05:12;7.47;;;3.67;;
62582;SDS011;48641;51.676;5.808;2024-01-30T09:07:38;6.38;;;3.15;;
62582;SDS011;48641;51.676;5.808;2024-01-30T09:10:03;6.90;;;3.05;;
62582;SDS011;48641;51.676;5.808;2024-01-30T09:12:30;7.55;;;3.03;;
62582;SDS011;48641;51.676;5.808;2024-01-30T09:14:55;6.15;;;3.08;;
62582;SDS011;48641;51.676;5.808;2024-01-30T09:17:21;6.47;;;3.17;;
62582;SDS011;48641;51.676;5.808;2024-01-30T09:19:46;8.80;;;3.30;;
62582;SDS011;48641;51.676;5.808;2024-01-30T09:22:12;7.80;;;3.00;;
62582;SDS011;48641;51.676;5.808;2024-01-30T09:24:37;6.85;;;3.25;;
62582;SDS011;48641;51.676;5.808;2024-01-30T09:27:03;9.98;;;3.03;;
62582;SDS011;48641;51.676;5.808;2024-01-30T09:29:29;6.35;;;3.00;;
62582;SDS011;48641;51.676;5.808;2024-01-30T09:31:55;6.97;;;2.97;;
62582;SDS011;48641;51.676;5.808;2024-01-30T09:34:20;7.65;;;3.55;;
62582;SDS011;48641;51.676;5.808;2024-01-30T09:36:46;6.43;;;2.92;;
62582;SDS011;48641;51.676;5.808;2024-01-30T09:39:11;6.60;;;3.00;;
62582;SDS011;48641;51.676;5.808;2024-01-30T09:41:45;7.00;;;2.83;;
62582;SDS011;48641;51.676;5.808;2024-01-30T09:44:18;7.07;;;3.05;;
62582;SDS011;48641;51.676;5.808;2024-01-30T09:46:46;7.88;;;3.00;;
62582;SDS011;48641;51.676;5.808;2024-01-30T09:49:15;6.70;;;3.22;;
62582;SDS011;48641;51.676;5.808;2024-01-30T09:51:43;7.68;;;3.30;;
62582;SDS011;48641;51.676;5.808;2024-01-30T09:54:10;6.88;;;3.42;;
62582;SDS011;48641;51.676;5.808;2024-01-30T09:56:38;7.97;;;3.50;;
62582;SDS011;48641;51.676;5.808;2024-01-30T09:59:04;6.78;;;3.20;;
62582;SDS011;48641;51.676;5.808;2024-01-30T10:01:29;5.90;;;2.95;;
62582;SDS011;48641;51.676;5.808;2024-01-30T10:03:56;7.22;;;2.92;;
62582;SDS011;48641;51.676;5.808;2024-01-30T10:06:22;5.93;;;2.97;;
62582;SDS011;48641;51.676;5.808;2024-01-30T10:08:49;7.05;;;3.15;;
62582;SDS011;48641;51.676;5.808;2024-01-30T10:11:15;6.45;;;3.10;;
62582;SDS011;48641;51.676;5.808;2024-01-30T10:13:41;6.53;;;3.30;;
62582;SDS011;48641;51.676;5.808;2024-01-30T10:16:06;6.35;;;3.10;;
62582;SDS011;48641;51.676;5.808;2024-01-30T10:18:32;6.88;;;3.13;;
62582;SDS011;48641;51.676;5.808;2024-01-30T10:20:58;8.02;;;3.63;;
62582;SDS011;48641;51.676;5.808;2024-01-30T10:23:24;6.80;;;2.92;;
62582;SDS011;48641;51.676;5.808;2024-01-30T10:25:52;6.38;;;3.00;;
62582;SDS011;48641;51.676;5.808;2024-01-30T10:28:21;7.63;;;3.37;;
62582;SDS011;48641;51.676;5.808;2024-01-30T10:30:56;6.13;;;3.03;;
62582;SDS011;48641;51.676;5.808;2024-01-30T10:33:24;6.97;;;3.00;;
62582;SDS011;48641;51.676;5.808;2024-01-30T10:35:50;6.60;;;3.00;;
62582;SDS011;48641;51.676;5.808;2024-01-30T10:38:16;8.13;;;3.47;;
62582;SDS011;48641;51.676;5.808;2024-01-30T10:40:44;6.43;;;2.80;;
62582;SDS011;48641;51.676;5.808;2024-01-30T10:43:12;6.75;;;3.00;;
62582;SDS011;48641;51.676;5.808;2024-01-30T10:45:42;7.15;;;3.10;;
62582;SDS011;48641;51.676;5.808;2024-01-30T10:48:11;7.35;;;2.97;;
62582;SDS011;48641;51.676;5.808;2024-01-30T10:50:37;7.20;;;2.90;;
62582;SDS011;48641;51.676;5.808;2024-01-30T10:53:05;6.65;;;3.13;;
62582;SDS011;48641;51.676;5.808;2024-01-30T10:55:33;9.77;;;3.45;;
62582;SDS011;48641;51.676;5.808;2024-01-30T10:57:59;6.28;;;3.13;;
62582;SDS011;48641;51.676;5.808;2024-01-30T11:00:25;6.97;;;3.03;;
62582;SDS011;48641;51.676;5.808;2024-01-30T11:02:51;6.22;;;3.13;;
62582;SDS011;48641;51.676;5.808;2024-01-30T11:05:24;8.70;;;3.15;;
62582;SDS011;48641;51.676;5.808;2024-01-30T11:07:51;7.03;;;3.38;;
62582;SDS011;48641;51.676;5.808;2024-01-30T11:10:17;6.88;;;2.88;;
62582;SDS011;48641;51.676;5.808;2024-01-30T11:12:42;7.57;;;3.28;;
62582;SDS011;48641;51.676;5.808;2024-01-30T11:15:14;6.28;;;2.95;;
62582;SDS011;48641;51.676;5.808;2024-01-30T11:20:16;5.68;;;2.75;;
62582;SDS011;48641;51.676;5.808;2024-01-30T11:23:00;6.20;;;2.88;;
62582;SDS011;48641;51.676;5.808;2024-01-30T11:25:32;8.32;;;3.15;;
62582;SDS011;48641;51.676;5.808;2024-01-30T11:27:58;7.90;;;3.90;;
62582;SDS011;48641;51.676;5.808;2024-01-30T11:30:24;7.68;;;3.20;;
62582;SDS011;48641;51.676;5.808;2024-01-30T11:33:13;7.85;;;3.20;;
62582;SDS011;48641;51.676;5.808;2024-01-30T11:35:43;8.55;;;4.22;;
62582;SDS011;48641;51.676;5.808;2024-01-30T11:38:10;6.43;;;3.30;;
62582;SDS011;48641;51.676;5.808;2024-01-30T11:40:38;10.30;;;4.43;;
62582;SDS011;48641;51.676;5.808;2024-01-30T11:43:06;8.10;;;4.03;;
62582;SDS011;48641;51.676;5.808;2024-01-30T11:45:33;8.73;;;4.15;;
62582;SDS011;48641;51.676;5.808;2024-01-30T11:48:00;7.50;;;2.90;;
62582;SDS011;48641;51.676;5.808;2024-01-30T11:50:28;8.47;;;4.17;;
62582;SDS011;48641;51.676;5.808;2024-01-30T11:52:54;8.50;;;3.30;;
62582;SDS011;48641;51.676;5.808;2024-01-30T11:55:20;11.02;;;3.92;;
62582;SDS011;48641;51.676;5.808;2024-01-30T11:57:45;6.47;;;3.50;;
62582;SDS011;48641;51.676;5.808;2024-01-30T12:00:17;7.63;;;3.50;;
62582;SDS011;48641;51.676;5.808;2024-01-30T12:02:44;6.28;;;3.22;;
62582;SDS011;48641;51.676;5.808;2024-01-30T12:05:14;6.90;;;3.72;;
62582;SDS011;48641;51.676;5.808;2024-01-30T12:07:40;7.78;;;3.72;;
62582;SDS011;48641;51.676;5.808;2024-01-30T12:10:09;8.68;;;3.13;;
62582;SDS011;48641;51.676;5.808;2024-01-30T12:12:34;7.88;;;3.88;;
62582;SDS011;48641;51.676;5.808;2024-01-30T12:15:00;8.30;;;3.60;;
62582;SDS011;48641;51.676;5.808;2024-01-30T12:17:30;7.38;;;3.80;;
62582;SDS011;48641;51.676;5.808;2024-01-30T12:20:06;9.05;;;3.50;;
62582;SDS011;48641;51.676;5.808;2024-01-30T12:22:36;7.18;;;3.00;;
62582;SDS011;48641;51.676;5.808;2024-01-30T12:25:16;9.10;;;4.20;;
62582;SDS011;48641;51.676;5.808;2024-01-30T12:27:43;7.45;;;3.30;;
62582;SDS011;48641;51.676;5.808;2024-01-30T12:30:11;11.02;;;3.40;;
62582;SDS011;48641;51.676;5.808;2024-01-30T12:32:39;6.40;;;2.97;;
62582;SDS011;48641;51.676;5.808;2024-01-30T12:35:07;6.68;;;2.95;;
62582;SDS011;48641;51.676;5.808;2024-01-30T12:37:37;6.43;;;2.85;;
62582;SDS011;48641;51.676;5.808;2024-01-30T12:40:03;7.30;;;2.90;;
62582;SDS011;48641;51.676;5.808;2024-01-30T12:42:29;7.20;;;3.10;;
62582;SDS011;48641;51.676;5.808;2024-01-30T12:44:56;8.63;;;3.25;;
62582;SDS011;48641;51.676;5.808;2024-01-30T12:47:22;7.68;;;2.95;;
62582;SDS011;48641;51.676;5.808;2024-01-30T12:49:48;7.38;;;3.00;;
62582;SDS011;48641;51.676;5.808;2024-01-30T12:52:15;7.35;;;3.70;;
62582;SDS011;48641;51.676;5.808;2024-01-30T12:54:41;6.75;;;2.95;;
62582;SDS011;48641;51.676;5.808;2024-01-30T12:57:07;6.50;;;2.78;;
62582;SDS011;48641;51.676;5.808;2024-01-30T12:59:32;6.18;;;3.00;;
62582;SDS011;48641;51.676;5.808;2024-01-30T13:01:59;6.75;;;2.83;;
62582;SDS011;48641;51.676;5.808;2024-01-30T13:04:26;6.90;;;2.55;;
62582;SDS011;48641;51.676;5.808;2024-01-30T13:06:52;6.57;;;2.47;;
62582;SDS011;48641;51.676;5.808;2024-01-30T13:09:18;6.93;;;2.45;;
62582;SDS011;48641;51.676;5.808;2024-01-30T13:11:44;6.47;;;2.92;;
62582;SDS011;48641;51.676;5.808;2024-01-30T13:14:09;6.28;;;2.45;;
62582;SDS011;48641;51.676;5.808;2024-01-30T13:16:35;7.25;;;2.53;;
62582;SDS011;48641;51.676;5.808;2024-01-30T13:19:00;6.13;;;2.35;;
62582;SDS011;48641;51.676;5.808;2024-01-30T13:21:27;6.07;;;2.65;;
62582;SDS011;48641;51.676;5.808;2024-01-30T13:23:52;6.50;;;2.45;;
62582;SDS011;48641;51.676;5.808;2024-01-30T13:26:19;5.90;;;2.30;;
62582;SDS011;48641;51.676;5.808;2024-01-30T13:28:45;5.13;;;2.05;;
62582;SDS011;48641;51.676;5.808;2024-01-30T13:31:11;4.82;;;2.00;;
62582;SDS011;48641;51.676;5.808;2024-01-30T13:33:37;7.25;;;2.40;;
62582;SDS011;48641;51.676;5.808;2024-01-30T13:36:03;5.13;;;2.42;;
62582;SDS011;48641;51.676;5.808;2024-01-30T13:38:29;4.85;;;2.10;;
62582;SDS011;48641;51.676;5.808;2024-01-30T13:40:54;5.03;;;1.90;;
62582;SDS011;48641;51.676;5.808;2024-01-30T13:43:20;6.28;;;2.17;;
62582;SDS011;48641;51.676;5.808;2024-01-30T13:45:45;5.47;;;1.75;;
62582;SDS011;48641;51.676;5.808;2024-01-30T13:48:11;5.35;;;1.85;;
62582;SDS011;48641;51.676;5.808;2024-01-30T13:50:37;5.35;;;1.80;;
62582;SDS011;48641;51.676;5.808;2024-01-30T13:53:02;5.15;;;1.88;;
62582;SDS011;48641;51.676;5.808;2024-01-30T13:55:29;4.65;;;1.83;;
62582;SDS011;48641;51.676;5.808;2024-01-30T13:57:55;5.15;;;1.70;;
62582;SDS011;48641;51.676;5.808;2024-01-30T14:00:21;6.15;;;2.00;;
62582;SDS011;48641;51.676;5.808;2024-01-30T14:02:48;4.20;;;1.60;;
62582;SDS011;48641;51.676;5.808;2024-01-30T14:05:13;5.55;;;2.08;;
62582;SDS011;48641;51.676;5.808;2024-01-30T14:07:40;4.72;;;1.70;;
62582;SDS011;48641;51.676;5.808;2024-01-30T14:10:07;4.60;;;1.67;;
62582;SDS011;48641;51.676;5.808;2024-01-30T14:12:35;4.32;;;1.95;;
62582;SDS011;48641;51.676;5.808;2024-01-30T14:15:01;4.82;;;2.05;;
62582;SDS011;48641;51.676;5.808;2024-01-30T14:17:26;4.22;;;1.60;;
62582;SDS011;48641;51.676;5.808;2024-01-30T14:19:52;4.68;;;2.10;;
62582;SDS011;48641;51.676;5.808;2024-01-30T14:22:17;4.60;;;1.65;;
62582;SDS011;48641;51.676;5.808;2024-01-30T14:24:43;4.30;;;1.50;;
62582;SDS011;48641;51.676;5.808;2024-01-30T14:27:09;5.82;;;1.73;;
62582;SDS011;48641;51.676;5.808;2024-01-30T14:29:35;4.75;;;1.92;;
62582;SDS011;48641;51.676;5.808;2024-01-30T14:32:01;4.95;;;1.55;;
62582;SDS011;48641;51.676;5.808;2024-01-30T14:34:27;4.38;;;1.50;;
62582;SDS011;48641;51.676;5.808;2024-01-30T14:36:52;4.88;;;1.52;;
62582;SDS011;48641;51.676;5.808;2024-01-30T14:39:18;3.92;;;1.55;;
62582;SDS011;48641;51.676;5.808;2024-01-30T14:41:44;3.30;;;1.45;;
62582;SDS011;48641;51.676;5.808;2024-01-30T14:44:09;4.75;;;1.50;;
62582;SDS011;48641;51.676;5.808;2024-01-30T14:46:35;5.60;;;1.63;;